Time;durP1;ratioP1;P1;durP2;ratioP2;P2;SDS_P1;SDS_P2;PMS_P1;PMS_P2;Temp;Humidity;BMP_temperature;BMP_pressure;BME280_temperature;BME280_humidity;BME280_pressure;Samples;Min_cycle;Max_cycle;Signal;HPM_P1;HPM_P2
2024/02/22 00:00:11;;;;;;;30.93;20.00;;;;;;;4.90;100.00;100674.92;1487172;87;22269;-81
2024/02/22 00:02:39;;;;;;;29.33;20.90;;;;;;;4.89;100.00;100663.20;1487667;87;21559;-82
2024/02/22 00:05:07;;;;;;;26.90;18.73;;;;;;;4.89;100.00;100673.70;1478249;88;21566;-80
2024/02/22 00:07:36;;;;;;;29.73;20.23;;;;;;;4.88;100.00;100666.78;1486986;87;21987;-81
2024/02/22 00:10:06;;;;;;;27.67;19.87;;;;;;;4.86;100.00;100661.66;1480701;87;21632;-81
2024/02/22 00:12:37;;;;;;;31.87;20.70;;;;;;;4.87;100.00;100659.88;1487631;88;21389;-81
2024/02/22 00:15:03;;;;;;;31.70;21.37;;;;;;;4.86;100.00;100655.11;1480029;88;22357;-81
2024/02/22 00:17:31;;;;;;;29.77;19.63;;;;;;;4.88;100.00;100656.30;1481408;88;22318;-81
2024/02/22 00:19:59;;;;;;;31.93;22.37;;;;;;;4.88;100.00;100654.98;1479790;87;21517;-81
2024/02/22 00:22:26;;;;;;;27.93;20.57;;;;;;;4.87;100.00;100644.97;1484843;87;21433;-82
2024/02/22 00:24:53;;;;;;;32.70;21.43;;;;;;;4.88;100.00;100648.42;1479602;87;21425;-80
2024/02/22 00:27:21;;;;;;;35.27;22.73;;;;;;;4.87;100.00;100648.07;1485600;87;21434;-81
2024/02/22 00:29:48;;;;;;;30.10;20.37;;;;;;;4.87;100.00;100641.03;1481565;88;21315;-81
2024/02/22 00:32:22;;;;;;;32.43;21.17;;;;;;;4.88;100.00;100643.18;1484758;88;21374;-81
2024/02/22 00:34:49;;;;;;;30.33;20.50;;;;;;;4.88;100.00;100638.77;1484615;88;21432;-82
2024/02/22 00:37:16;;;;;;;31.40;20.93;;;;;;;4.89;100.00;100633.05;1487586;88;21426;-82
2024/02/22 00:39:46;;;;;;;35.30;23.07;;;;;;;4.88;100.00;100629.59;1483911;87;22469;-82
2024/02/22 00:42:13;;;;;;;29.85;21.02;;;;;;;4.90;100.00;100626.39;1482478;87;21873;-82
2024/02/22 00:44:41;;;;;;;39.17;23.47;;;;;;;4.91;100.00;100619.36;1484432;87;21441;-81
2024/02/22 00:47:08;;;;;;;35.40;23.77;;;;;;;4.94;100.00;100616.52;1476569;87;21374;-80
2024/02/22 00:49:35;;;;;;;36.53;24.07;;;;;;;4.92;100.00;100616.65;1480884;87;22374;-80
2024/02/22 00:52:03;;;;;;;35.43;24.80;;;;;;;4.91;100.00;100607.08;1468288;88;21345;-80
2024/02/22 00:54:30;;;;;;;35.17;23.27;;;;;;;4.90;100.00;100605.41;1485540;87;21863;-80
2024/02/22 00:56:57;;;;;;;36.63;23.50;;;;;;;4.91;100.00;100602.31;1474783;87;21286;-80
2024/02/22 00:59:27;;;;;;;39.00;25.17;;;;;;;4.89;100.00;100593.26;1486586;87;21427;-80
2024/02/22 01:01:53;;;;;;;37.77;23.80;;;;;;;4.87;100.00;100591.20;1479084;87;21426;-80
2024/02/22 01:04:20;;;;;;;37.77;26.70;;;;;;;4.87;100.00;100581.19;1480775;87;21544;-80
2024/02/22 01:06:47;;;;;;;40.27;26.83;;;;;;;4.84;100.00;100579.62;1484795;87;21360;-80
2024/02/22 01:09:15;;;;;;;40.73;26.90;;;;;;;4.81;100.00;100569.34;1476055;87;21396;-80
2024/02/22 01:11:42;;;;;;;39.23;26.07;;;;;;;4.80;100.00;100562.88;1480207;87;21382;-80
2024/02/22 01:14:09;;;;;;;41.43;26.50;;;;;;;4.77;100.00;100560.48;1482646;87;22423;-80
2024/02/22 01:16:37;;;;;;;38.47;26.27;;;;;;;4.74;100.00;100556.28;1481123;87;21403;-80
2024/02/22 01:19:04;;;;;;;33.40;23.23;;;;;;;4.73;100.00;100549.37;1484606;87;21300;-79
2024/02/22 01:21:31;;;;;;;37.53;25.93;;;;;;;4.74;100.00;100553.66;1484578;87;21352;-80
2024/02/22 01:23:58;;;;;;;39.37;24.33;;;;;;;4.72;100.00;100549.02;1479949;87;21559;-79
2024/02/22 01:26:26;;;;;;;31.90;22.37;;;;;;;4.72;100.00;100545.09;1468105;88;21375;-80
2024/02/22 01:28:53;;;;;;;32.40;22.10;;;;;;;4.71;100.00;100544.70;1462647;88;21405;-80
2024/02/22 01:31:20;;;;;;;32.50;22.87;;;;;;;4.69;100.00;100534.78;1480260;88;21546;-80
2024/02/22 01:33:47;;;;;;;35.20;23.43;;;;;;;4.66;100.00;100536.31;1469672;88;21316;-80
2024/02/22 01:36:15;;;;;;;30.37;20.60;;;;;;;4.63;100.00;100527.34;1469351;87;22247;-80
2024/02/22 01:38:42;;;;;;;34.10;21.93;;;;;;;4.61;100.00;100520.09;1478631;87;21523;-79
2024/02/22 01:41:09;;;;;;;31.40;21.23;;;;;;;4.59;100.00;100514.94;1474506;87;22314;-82
2024/02/22 01:43:37;;;;;;;33.60;21.97;;;;;;;4.58;100.00;100516.37;1471466;88;21419;-82
2024/02/22 01:46:05;;;;;;;27.97;19.37;;;;;;;4.55;100.00;100516.11;1470293;87;21552;-81
2024/02/22 01:48:32;;;;;;;27.73;20.93;;;;;;;4.51;100.00;100504.14;1473830;87;21434;-81
2024/02/22 01:51:01;;;;;;;27.57;18.77;;;;;;;4.49;100.00;100499.50;1476916;88;21338;-81
2024/02/22 01:53:30;;;;;;;29.57;19.60;;;;;;;4.48;100.00;100501.73;1470075;87;22418;-82
2024/02/22 01:55:58;;;;;;;25.77;18.07;;;;;;;4.41;100.00;100492.64;1477609;87;22432;-81
2024/02/22 01:58:25;;;;;;;26.07;18.67;;;;;;;4.40;100.00;100494.42;1466668;87;21360;-83
2024/02/22 02:00:52;;;;;;;23.20;16.67;;;;;;;4.37;100.00;100492.47;1472092;87;21361;-80
2024/02/22 02:03:20;;;;;;;29.33;16.60;;;;;;;4.33;100.00;100495.78;1476621;88;21440;-82
2024/02/22 02:05:47;;;;;;;22.30;15.97;;;;;;;4.35;100.00;100493.90;1471659;87;21382;-81
2024/02/22 02:08:14;;;;;;;23.97;17.23;;;;;;;4.34;100.00;100491.37;1470546;87;21831;-82
2024/02/22 02:10:42;;;;;;;24.70;17.17;;;;;;;4.28;100.00;100492.15;1472568;87;21427;-81
2024/02/22 02:13:09;;;;;;;18.87;15.17;;;;;;;4.28;100.00;100492.15;1470211;87;21511;-79
2024/02/22 02:15:36;;;;;;;23.37;16.37;;;;;;;4.32;100.00;100490.19;1470885;87;21546;-81
2024/02/22 02:18:04;;;;;;;26.57;15.60;;;;;;;4.32;100.00;100487.56;1477147;88;22284;-81
2024/02/22 02:20:42;;;;;;;19.87;15.03;;;;;;;4.35;100.00;100496.52;1472252;87;21427;-82
2024/02/22 02:23:27;;;;;;;24.30;16.03;;;;;;;4.37;100.00;100491.98;1479004;88;21604;-82
2024/02/22 02:25:54;;;;;;;25.57;14.97;;;;;;;4.38;100.00;100493.69;1457726;87;21648;-81
2024/02/22 02:28:21;;;;;;;20.37;14.43;;;;;;;4.40;100.00;100483.08;1483582;88;21360;-81
2024/02/22 02:30:48;;;;;;;21.47;14.23;;;;;;;4.38;100.00;100483.20;1484879;87;21389;-82
2024/02/22 02:33:15;;;;;;;21.23;13.67;;;;;;;4.38;100.00;100483.20;1485196;87;21870;-82
2024/02/22 02:35:42;;;;;;;19.57;12.70;;;;;;;4.43;100.00;100494.21;1480685;87;21367;-81
2024/02/22 02:38:11;;;;;;;20.63;13.77;;;;;;;4.43;100.00;100485.48;1483863;87;22336;-81
2024/02/22 02:40:38;;;;;;;17.00;12.40;;;;;;;4.45;100.00;100487.06;1470615;88;21440;-81
2024/02/22 02:43:07;;;;;;;19.93;13.17;;;;;;;4.45;100.00;100490.98;1485134;87;21434;-81
2024/02/22 02:45:34;;;;;;;20.97;12.50;;;;;;;4.45;100.00;100490.16;1478007;87;22343;-81
2024/02/22 02:48:01;;;;;;;20.23;12.43;;;;;;;4.47;100.00;100491.73;1483374;88;21404;-82
2024/02/22 02:50:28;;;;;;;15.33;11.27;;;;;;;4.47;100.00;100499.59;1478867;87;21395;-82
2024/02/22 02:52:56;;;;;;;20.43;12.70;;;;;;;4.43;100.00;100490.28;1489787;87;21463;-81
2024/02/22 02:55:25;;;;;;;17.30;11.53;;;;;;;4.43;100.00;100490.28;1486130;88;21374;-80
2024/02/22 02:57:52;;;;;;;14.87;11.13;;;;;;;4.48;100.00;100493.25;1488047;88;21293;-81
2024/02/22 03:00:20;;;;;;;21.33;11.17;;;;;;;4.44;100.00;100493.25;1481997;87;21426;-81
2024/02/22 03:02:47;;;;;;;21.40;11.43;;;;;;;4.47;100.00;100497.45;1471966;88;21390;-81
2024/02/22 03:05:14;;;;;;;22.10;11.57;;;;;;;4.47;100.00;100502.69;1484638;87;21441;-81
2024/02/22 03:07:41;;;;;;;19.43;10.47;;;;;;;4.44;100.00;100493.25;1485903;87;21546;-81
2024/02/22 03:10:09;;;;;;;17.27;10.97;;;;;;;4.38;100.00;100493.69;1480784;87;21337;-80
2024/02/22 03:12:36;;;;;;;21.47;11.37;;;;;;;4.42;100.00;100494.30;1479509;88;21359;-81
2024/02/22 03:15:04;;;;;;;30.77;13.23;;;;;;;4.42;100.00;100494.30;1484024;87;21324;-82
2024/02/22 03:17:31;;;;;;;18.53;11.77;;;;;;;4.43;100.00;100496.83;1476870;87;21433;-81
2024/02/22 03:19:59;;;;;;;16.93;11.37;;;;;;;4.42;100.00;100492.99;1483312;87;22290;-82
2024/02/22 03:22:26;;;;;;;14.67;10.40;;;;;;;4.41;100.00;100488.23;1479102;87;22313;-81
2024/02/22 03:24:54;;;;;;;18.37;12.03;;;;;;;4.42;100.00;100488.58;1471803;88;21484;-81
2024/02/22 03:27:22;;;;;;;18.27;10.33;;;;;;;4.41;100.00;100492.16;1470537;88;22225;-80
2024/02/22 03:29:51;;;;;;;17.87;11.33;;;;;;;4.41;100.00;100498.71;1486169;87;22357;-81
2024/02/22 03:32:18;;;;;;;15.37;10.13;;;;;;;4.40;100.00;100496.18;1475716;87;21457;-81
2024/02/22 03:34:47;;;;;;;19.70;9.93;;;;;;;4.40;100.00;100499.67;1478389;87;21353;-81
2024/02/22 03:37:14;;;;;;;14.27;10.67;;;;;;;4.39;100.00;100500.59;1474352;88;21419;-81
2024/02/22 03:39:44;;;;;;;20.37;10.13;;;;;;;4.39;100.00;100490.11;1478606;87;22276;-81
2024/02/22 03:42:12;;;;;;;16.77;10.07;;;;;;;4.41;100.00;100490.02;1479420;87;22002;-82
2024/02/22 03:44:39;;;;;;;16.80;9.87;;;;;;;4.39;100.00;100480.11;1471309;87;21456;-82
2024/02/22 03:47:06;;;;;;;18.43;9.43;;;;;;;4.40;100.00;100487.87;1480532;87;21360;-82
2024/02/22 03:49:34;;;;;;;25.53;10.73;;;;;;;4.39;100.00;100482.25;1478014;87;21330;-81
2024/02/22 03:52:01;;;;;;;21.60;11.47;;;;;;;4.40;100.00;100476.08;1472415;87;21397;-82
2024/02/22 03:54:28;;;;;;;15.87;9.23;;;;;;;4.41;100.00;100475.13;1477527;87;22130;-81
2024/02/22 03:56:55;;;;;;;14.97;8.97;;;;;;;4.43;100.00;100471.07;1473242;88;21375;-82
2024/02/22 03:59:23;;;;;;;15.77;8.97;;;;;;;4.41;100.00;100468.58;1474242;87;21471;-79
2024/02/22 04:01:50;;;;;;;20.27;9.93;;;;;;;4.42;100.00;100476.79;1474246;87;21494;-79
2024/02/22 04:04:17;;;;;;;20.30;9.37;;;;;;;4.43;100.00;100464.08;1471436;87;22299;-78
2024/02/22 04:06:44;;;;;;;14.80;9.10;;;;;;;4.43;100.00;100464.08;1469100;87;21352;-79
2024/02/22 04:09:12;;;;;;;17.80;9.17;;;;;;;4.49;100.00;100463.64;1472007;87;21751;-82
2024/02/22 04:11:39;;;;;;;11.30;7.67;;;;;;;4.51;100.00;100463.03;1475880;87;21368;-82
2024/02/22 04:14:06;;;;;;;21.67;9.07;;;;;;;4.50;100.00;100458.75;1472637;87;22343;-82
2024/02/22 04:16:33;;;;;;;17.27;8.30;;;;;;;4.51;100.00;100452.55;1473638;88;21338;-82
2024/02/22 04:19:01;;;;;;;17.53;8.60;;;;;;;4.50;100.00;100450.89;1476796;88;21434;-82
2024/02/22 04:21:30;;;;;;;14.43;8.80;;;;;;;4.51;100.00;100444.69;1476511;87;21463;-82
2024/02/22 04:23:57;;;;;;;12.13;7.70;;;;;;;4.51;100.00;100436.83;1478054;88;21338;-82
2024/02/22 04:26:24;;;;;;;14.03;8.27;;;;;;;4.50;100.00;100437.78;1471384;88;21626;-82
2024/02/22 04:28:51;;;;;;;16.47;9.43;;;;;;;4.53;100.00;100434.94;1476935;88;22329;-82
2024/02/22 04:31:18;;;;;;;18.27;8.17;;;;;;;4.55;100.00;100435.33;1474603;88;21449;-81
2024/02/22 04:33:45;;;;;;;16.77;8.60;;;;;;;4.51;100.00;100425.03;1472834;87;21529;-83
2024/02/22 04:36:14;;;;;;;14.67;8.73;;;;;;;4.58;100.00;100439.04;1474939;87;22188;-82
2024/02/22 04:38:41;;;;;;;12.43;7.23;;;;;;;4.56;100.00;100433.06;1473120;88;21485;-81
2024/02/22 04:41:08;;;;;;;13.33;7.63;;;;;;;4.56;100.00;100433.06;1478369;88;21448;-82
2024/02/22 04:43:35;;;;;;;14.40;7.57;;;;;;;4.58;100.00;100431.17;1478907;87;21346;-81
2024/02/22 04:46:02;;;;;;;17.67;9.37;;;;;;;4.57;100.00;100432.10;1464262;88;21434;-83
2024/02/22 04:48:30;;;;;;;21.10;9.07;;;;;;;4.59;100.00;100432.36;1477729;87;21522;-82
2024/02/22 04:50:57;;;;;;;10.17;6.70;;;;;;;4.58;100.00;100432.48;1473112;88;21360;-81
2024/02/22 04:53:24;;;;;;;15.97;8.27;;;;;;;4.58;100.00;100431.17;1477799;87;21383;-81
2024/02/22 04:55:51;;;;;;;16.83;7.20;;;;;;;4.60;100.00;100437.13;1468038;88;21323;-81
2024/02/22 04:58:18;;;;;;;16.10;9.07;;;;;;;4.61;100.00;100430.95;1482797;88;22226;-80
2024/02/22 05:00:46;;;;;;;12.60;7.43;;;;;;;4.64;100.00;100432.05;1471765;87;21427;-80
2024/02/22 05:03:13;;;;;;;16.97;8.90;;;;;;;4.67;100.00;100430.52;1472843;87;21405;-79
2024/02/22 05:05:40;;;;;;;15.50;8.10;;;;;;;4.71;100.00;100418.37;1473717;87;21993;-82
2024/02/22 05:08:09;;;;;;;19.07;10.13;;;;;;;4.76;100.00;100414.12;1475490;87;21524;-83
2024/02/22 05:10:36;;;;;;;15.03;7.77;;;;;;;4.79;100.00;100410.44;1473375;87;21608;-83
2024/02/22 05:13:03;;;;;;;12.57;7.17;;;;;;;4.79;100.00;100412.58;1467972;87;21294;-82
2024/02/22 05:15:30;;;;;;;10.77;7.43;;;;;;;4.79;100.00;100407.81;1474622;87;21390;-82
2024/02/22 05:18:00;;;;;;;14.30;8.40;;;;;;;4.77;100.00;100409.23;1485118;87;21478;-82
2024/02/22 05:20:27;;;;;;;12.07;8.00;;;;;;;4.80;100.00;100399.83;1472032;87;21412;-82
2024/02/22 05:22:54;;;;;;;24.87;9.03;;;;;;;4.81;100.00;100404.62;1507601;87;21602;-82
2024/02/22 05:25:20;;;;;;;13.80;8.17;;;;;;;4.83;100.00;100408.78;1475907;87;21427;-80
2024/02/22 05:27:48;;;;;;;15.67;8.03;;;;;;;4.83;100.00;100411.40;1474489;88;21631;-82
2024/02/22 05:30:15;;;;;;;20.53;8.10;;;;;;;4.85;100.00;100410.83;1484632;87;21397;-81
2024/02/22 05:32:42;;;;;;;12.53;7.80;;;;;;;4.86;100.00;100412.52;1482381;87;22643;-79
2024/02/22 05:35:09;;;;;;;16.07;7.83;;;;;;;4.87;100.00;100400.23;1491691;88;21448;-79
2024/02/22 05:37:37;;;;;;;18.40;7.60;;;;;;;4.90;100.00;100409.19;1485803;88;21375;-78
2024/02/22 05:40:09;;;;;;;12.77;7.90;;;;;;;4.90;100.00;100405.26;1484802;88;21389;-78
2024/02/22 05:42:37;;;;;;;17.13;8.73;;;;;;;4.92;100.00;100404.20;1486657;87;21552;-79
2024/02/22 05:45:07;;;;;;;17.13;9.60;;;;;;;4.93;100.00;100403.24;1483329;87;21552;-79
2024/02/22 05:47:34;;;;;;;14.23;8.13;;;;;;;4.94;100.00;100406.22;1471942;88;21367;-78
2024/02/22 05:50:03;;;;;;;14.10;7.57;;;;;;;4.96;100.00;100408.27;1483171;88;22674;-78
2024/02/22 05:52:30;;;;;;;15.77;7.93;;;;;;;5.01;100.00;100409.73;1483140;88;21381;-78
2024/02/22 05:54:57;;;;;;;20.60;9.40;;;;;;;5.03;100.00;100410.43;1486973;88;21382;-76
2024/02/22 05:57:24;;;;;;;16.87;9.23;;;;;;;5.06;100.00;100409.72;1479612;87;21897;-79
2024/02/22 05:59:51;;;;;;;13.53;7.53;;;;;;;5.10;100.00;100412.98;1480646;88;21404;-78
2024/02/22 06:02:19;;;;;;;17.43;8.80;;;;;;;5.12;100.00;100407.98;1478771;87;22180;-79
2024/02/22 06:04:46;;;;;;;19.27;8.73;;;;;;;5.14;100.00;100417.05;1502756;87;21374;-77
2024/02/22 06:07:13;;;;;;;14.47;8.67;;;;;;;5.14;100.00;100409.17;1484340;87;21316;-79
2024/02/22 06:09:41;;;;;;;19.67;10.17;;;;;;;5.16;100.00;100412.05;1485895;88;22247;-79
2024/02/22 06:12:08;;;;;;;14.93;9.27;;;;;;;5.19;100.00;100403.11;1482327;87;21772;-78
2024/02/22 06:14:35;;;;;;;20.00;10.73;;;;;;;5.24;100.00;100403.62;1479982;87;21575;-79
2024/02/22 06:17:03;;;;;;;18.77;10.33;;;;;;;5.21;100.00;100401.22;1485696;87;22447;-79
2024/02/22 06:19:31;;;;;;;20.80;11.60;;;;;;;5.21;100.00;100406.47;1482164;87;21427;-78
2024/02/22 06:21:57;;;;;;;19.53;11.60;;;;;;;5.24;100.00;100400.99;1479041;87;21359;-79
2024/02/22 06:24:24;;;;;;;21.20;12.63;;;;;;;5.24;100.00;100392.29;1484423;87;21485;-78
2024/02/22 06:26:51;;;;;;;18.57;10.57;;;;;;;5.23;100.00;100395.36;1480872;87;22431;-79
2024/02/22 06:29:18;;;;;;;19.40;11.17;;;;;;;5.26;100.00;100391.20;1486663;87;22101;-78
2024/02/22 06:31:47;;;;;;;17.13;10.63;;;;;;;5.31;100.00;100399.57;1486114;88;21419;-79
2024/02/22 06:34:14;;;;;;;23.37;10.03;;;;;;;5.27;100.00;100403.39;1477125;87;21300;-79
2024/02/22 06:36:41;;;;;;;17.87;9.20;;;;;;;5.26;100.00;100399.07;1485304;87;21346;-79
2024/02/22 06:39:08;;;;;;;21.67;10.23;;;;;;;5.25;100.00;100400.52;1480142;87;21293;-78
2024/02/22 06:41:36;;;;;;;40.87;11.63;;;;;;;5.27;100.00;100395.52;1483660;87;22431;-79
2024/02/22 06:44:03;;;;;;;14.07;8.83;;;;;;;5.30;100.00;100393.97;1484624;88;21492;-79
2024/02/22 06:46:30;;;;;;;16.53;10.67;;;;;;;5.31;100.00;100398.26;1484867;87;22411;-79
2024/02/22 06:48:58;;;;;;;20.07;9.53;;;;;;;5.31;100.00;100389.55;1485146;87;21523;-78
2024/02/22 06:51:25;;;;;;;20.00;10.13;;;;;;;5.32;100.00;100393.39;1480462;87;21368;-78
2024/02/22 06:53:52;;;;;;;17.93;9.83;;;;;;;5.33;100.00;100395.05;1479319;87;21463;-77
2024/02/22 06:56:20;;;;;;;19.93;10.17;;;;;;;5.37;100.00;100393.03;1479031;87;22269;-77
2024/02/22 06:58:47;;;;;;;22.40;10.33;;;;;;;5.37;100.00;100390.41;1488435;87;21566;-78
2024/02/22 07:01:14;;;;;;;20.80;10.97;;;;;;;5.39;100.00;100388.52;1481496;87;21448;-76
2024/02/22 07:03:41;;;;;;;18.10;10.63;;;;;;;5.45;100.00;100384.59;1476498;87;21382;-77
2024/02/22 07:06:08;;;;;;;23.67;11.83;;;;;;;5.49;100.00;100380.77;1480904;87;21397;-79
2024/02/22 07:08:35;;;;;;;18.73;10.90;;;;;;;5.54;100.00;100381.27;1483569;87;21426;-79
2024/02/22 07:11:04;;;;;;;19.53;10.77;;;;;;;5.58;100.00;100380.92;1486979;87;21485;-78
2024/02/22 07:13:33;;;;;;;19.80;10.67;;;;;;;5.63;100.00;100374.83;1483110;87;21338;-78
2024/02/22 07:16:00;;;;;;;20.13;10.63;;;;;;;5.69;100.00;100376.63;1484988;87;22852;-78
2024/02/22 07:18:27;;;;;;;16.70;10.30;;;;;;;5.72;100.00;100375.08;1489084;88;21286;-78
2024/02/22 07:20:59;;;;;;;18.93;9.50;;;;;;;5.76;100.00;100372.59;1483516;87;21404;-78
2024/02/22 07:23:26;;;;;;;21.33;11.03;;;;;;;5.80;100.00;100368.28;1470528;88;21389;-78
2024/02/22 07:25:53;;;;;;;14.53;9.47;;;;;;;5.89;100.00;100366.25;1487092;88;21417;-78
2024/02/22 07:28:21;;;;;;;18.13;10.67;;;;;;;5.95;100.00;100361.52;1470724;88;22232;-79
2024/02/22 07:30:49;;;;;;;19.13;11.20;;;;;;;6.02;100.00;100356.16;1473794;88;21368;-79
2024/02/22 07:33:16;;;;;;;27.23;15.53;;;;;;;6.10;100.00;100351.14;1426418;88;21368;-78
2024/02/22 07:35:43;;;;;;;32.30;15.80;;;;;;;6.15;100.00;100355.53;1476953;87;22320;-78
2024/02/22 07:38:10;;;;;;;20.07;12.07;;;;;;;6.20;100.00;100352.07;1474025;87;21434;-78
2024/02/22 07:40:37;;;;;;;28.83;12.73;;;;;;;6.24;100.00;100353.52;1469429;87;21353;-78
2024/02/22 07:43:04;;;;;;;22.13;12.27;;;;;;;6.30;100.00;100349.08;1471879;87;21436;-79
2024/02/22 07:45:32;;;;;;;20.37;11.87;;;;;;;6.33;100.00;100347.52;1472908;87;21338;-79
2024/02/22 07:48:01;;;;;;;16.53;10.00;;;;;;;6.40;100.00;100344.40;1472195;87;22225;-79
2024/02/22 07:50:28;;;;;;;20.60;12.10;;;;;;;6.44;100.00;100339.23;1478168;87;21455;-79
2024/02/22 07:52:55;;;;;;;16.77;11.23;;;;;;;6.51;100.00;100346.52;1477413;87;22173;-79
2024/02/22 07:55:22;;;;;;;17.10;10.60;;;;;;;6.55;100.00;100343.16;1472379;87;21375;-80
2024/02/22 07:57:49;;;;;;;17.17;9.97;;;;;;;6.59;100.00;100337.16;1476815;87;21375;-79
2024/02/22 08:00:17;;;;;;;18.43;10.50;;;;;;;6.69;100.00;100339.41;1472396;87;21353;-79
2024/02/22 08:02:45;;;;;;;17.97;11.47;;;;;;;6.76;100.00;100336.63;1471427;87;21404;-79
2024/02/22 08:05:12;;;;;;;20.47;10.57;;;;;;;6.82;100.00;100335.29;1477020;88;21516;-78
2024/02/22 08:07:40;;;;;;;30.00;14.53;;;;;;;6.96;100.00;100325.78;1475710;87;21448;-78
2024/02/22 08:10:08;;;;;;;30.97;16.90;;;;;;;7.07;100.00;100324.42;1473022;87;21375;-79
2024/02/22 08:12:35;;;;;;;22.40;10.97;;;;;;;7.11;100.00;100330.28;1470143;87;21383;-79
2024/02/22 08:15:03;;;;;;;23.47;10.70;;;;;;;7.16;100.00;100315.78;1479263;87;21331;-79
2024/02/22 08:17:33;;;;;;;31.47;12.60;;;;;;;7.22;100.00;100320.53;1486151;87;21419;-78
2024/02/22 08:20:00;;;;;;;18.37;9.93;;;;;;;7.24;100.00;100317.27;1475411;87;22350;-80
2024/02/22 08:22:27;;;;;;;19.03;10.27;;;;;;;7.33;100.00;100314.34;1471893;88;21412;-79
2024/02/22 08:24:55;;;;;;;12.70;8.00;;;;;;;7.48;100.00;100314.00;1473056;87;22009;-77
2024/02/22 08:27:22;;;;;;;20.90;9.33;;;;;;;7.66;100.00;100308.02;1477089;88;22357;-79
2024/02/22 08:29:50;;;;;;;26.23;9.07;;;;;;;7.82;100.00;100308.83;1473695;87;21309;-79
2024/02/22 08:32:18;;;;;;;18.07;10.63;;;;;;;7.95;100.00;100303.83;1461189;88;22588;-79
2024/02/22 08:34:45;;;;;;;15.13;8.23;;;;;;;8.02;100.00;100295.23;1474379;87;21494;-80
2024/02/22 08:37:12;;;;;;;17.73;8.20;;;;;;;8.19;100.00;100287.66;1470021;88;21360;-79
2024/02/22 08:39:39;;;;;;;16.87;7.90;;;;;;;8.37;100.00;100286.01;1472379;87;21286;-79
2024/02/22 08:42:06;;;;;;;17.33;8.70;;;;;;;8.63;100.00;100284.19;1471046;87;21434;-78
2024/02/22 08:44:33;;;;;;;17.03;8.40;;;;;;;8.76;100.00;100276.36;1474791;87;22638;-79
2024/02/22 08:47:03;;;;;;;16.87;7.50;;;;;;;8.94;100.00;100275.16;1472797;87;21339;-78
2024/02/22 08:49:30;;;;;;;26.90;7.53;;;;;;;9.03;100.00;100273.02;1465476;87;22211;-79
2024/02/22 08:51:57;;;;;;;15.73;7.73;;;;;;;9.07;100.00;100264.81;1472803;87;21507;-79
2024/02/22 08:54:24;;;;;;;14.87;7.37;;;;;;;9.19;100.00;100264.98;1473853;87;21353;-79
2024/02/22 08:56:51;;;;;;;9.77;7.23;;;;;;;9.32;100.00;100268.16;1470372;88;21490;-79
2024/02/22 08:59:18;;;;;;;15.03;6.87;;;;;;;9.42;100.00;100264.16;1473185;87;21368;-78
2024/02/22 09:01:47;;;;;;;16.27;7.40;;;;;;;9.54;100.00;100263.48;1472904;87;21360;-79
2024/02/22 09:04:14;;;;;;;13.90;6.67;;;;;;;9.62;100.00;100258.31;1395527;87;21353;-79
2024/02/22 09:06:42;;;;;;;14.07;7.70;;;;;;;9.68;100.00;100261.69;1405011;87;21295;-79
2024/02/22 09:09:10;;;;;;;12.70;6.77;;;;;;;9.73;100.00;100254.16;1397655;87;21338;-78
2024/02/22 09:11:37;;;;;;;13.73;6.80;;;;;;;9.90;100.00;100248.09;1398035;87;21228;-77
2024/02/22 09:14:05;;;;;;;16.10;7.23;;;;;;;9.99;100.00;100240.26;1399031;88;21410;-79
2024/02/22 09:16:32;;;;;;;14.80;7.77;;;;;;;10.02;100.00;100249.22;1404414;87;21324;-79
2024/02/22 09:18:59;;;;;;;11.33;6.40;;;;;;;10.18;100.00;100242.76;1559358;87;21206;-79
2024/02/22 09:21:26;;;;;;;14.90;6.97;;;;;;;10.39;100.00;100236.73;1398653;87;22057;-79
2024/02/22 09:23:53;;;;;;;14.33;7.23;;;;;;;10.61;100.00;100234.59;1399179;87;21243;-79
2024/02/22 09:26:21;;;;;;;17.40;6.97;;;;;;;10.77;100.00;100233.42;1399183;87;21265;-79
2024/02/22 09:28:49;;;;;;;15.63;6.53;;;;;;;10.81;100.00;100232.11;1550200;87;21507;-79
2024/02/22 09:31:17;;;;;;;14.67;6.67;;;;;;;10.77;100.00;100234.74;1407641;88;21250;-79
2024/02/22 09:33:44;;;;;;;10.80;5.93;;;;;;;10.96;100.00;100235.53;1406132;88;21398;-79
2024/02/22 09:36:11;;;;;;;15.87;6.47;;;;;;;11.06;100.00;100229.66;1407879;87;21250;-78
2024/02/22 09:38:39;;;;;;;18.10;5.63;;;;;;;11.23;100.00;100226.13;1406446;87;21271;-79
2024/02/22 09:41:09;;;;;;;18.03;7.10;;;;;;;11.30;100.00;100221.02;1463865;87;21655;-79
2024/02/22 09:43:36;;;;;;;14.27;6.53;;;;;;;11.46;100.00;100212.33;1482111;88;21508;-78
2024/02/22 09:46:03;;;;;;;14.33;5.57;;;;;;;11.44;100.00;100208.50;1480828;87;21618;-80
2024/02/22 09:48:30;;;;;;;10.80;6.03;;;;;;;11.50;100.00;100212.34;1484345;87;21508;-78
2024/02/22 09:50:59;;;;;;;18.30;7.17;;;;;;;11.45;100.00;100208.86;1486785;87;21434;-78
2024/02/22 09:53:27;;;;;;;12.07;6.10;;;;;;;11.51;100.00;100203.42;1477479;88;21360;-79
2024/02/22 09:55:55;;;;;;;11.47;5.83;;;;;;;11.60;100.00;100195.83;1465641;88;21910;-79
2024/02/22 09:58:24;;;;;;;13.07;6.07;;;;;;;11.75;100.00;100190.74;1486159;88;21581;-78
2024/02/22 10:00:51;;;;;;;15.93;7.10;;;;;;;11.85;100.00;100195.43;1447071;88;22219;-79
2024/02/22 10:03:29;;;;;;;10.57;4.77;;;;;;;11.92;100.00;100189.00;1479671;87;21374;-79
2024/02/22 10:05:58;;;;;;;14.17;5.60;;;;;;;12.00;100.00;100186.37;1414335;87;21411;-78
2024/02/22 10:08:25;;;;;;;13.47;5.60;;;;;;;11.87;100.00;100182.84;1406570;87;21206;-79
2024/02/22 10:10:55;;;;;;;16.73;6.50;;;;;;;11.95;100.00;100174.09;1407451;87;21390;-78
2024/02/22 10:13:24;;;;;;;11.60;5.50;;;;;;;11.88;73.97;100174.39;1409887;88;21560;-78
2024/02/22 10:15:51;;;;;;;16.67;5.80;;;;;;;11.90;66.09;100167.94;1406738;88;21250;-78
2024/02/22 10:18:34;;;;;;;10.23;5.17;;;;;;;11.89;66.89;100164.14;1405580;88;21264;-79
2024/02/22 10:20:54;;;;;;;9.83;5.17;;;;;;;11.72;66.59;100160.08;1558173;87;21426;-78
2024/02/22 10:23:21;;;;;;;16.13;6.70;;;;;;;11.69;62.24;100149.80;1558001;87;21286;-78
2024/02/22 10:25:48;;;;;;;16.43;6.23;;;;;;;11.61;63.09;100152.92;1425924;88;21293;-78
2024/02/22 10:28:16;;;;;;;21.57;6.23;;;;;;;11.61;62.51;100148.95;1483433;88;21507;-77
2024/02/22 10:30:44;;;;;;;13.53;5.37;;;;;;;11.51;62.43;100149.09;1482043;87;22475;-80
2024/02/22 10:33:11;;;;;;;10.10;5.10;;;;;;;11.56;62.85;100145.44;1478392;88;21293;-78
2024/02/22 10:35:40;;;;;;;16.13;6.07;;;;;;;11.64;63.75;100140.17;1480642;87;21412;-79
2024/02/22 10:38:09;;;;;;;7.53;4.73;;;;;;;11.77;62.82;100134.89;1482225;87;21925;-78
2024/02/22 10:40:37;;;;;;;15.30;5.77;;;;;;;11.88;62.45;100129.31;1481722;87;21375;-78
2024/02/22 10:43:05;;;;;;;9.67;5.47;;;;;;;11.93;59.60;100122.52;1484235;88;21419;-79
2024/02/22 10:45:33;;;;;;;12.13;6.13;;;;;;;12.02;61.66;100116.73;1476703;87;22682;-77
2024/02/22 10:48:06;;;;;;;13.87;5.10;;;;;;;12.15;61.80;100102.49;1483596;87;21551;-79
2024/02/22 10:50:34;;;;;;;13.17;5.33;;;;;;;12.33;61.66;100094.86;1569930;87;22003;-77
2024/02/22 10:53:06;;;;;;;14.80;5.87;;;;;;;12.39;58.98;100083.06;1566529;88;21294;-78
2024/02/22 10:55:37;;;;;;;19.00;5.90;;;;;;;12.51;58.92;100094.16;1569947;87;21161;-78
2024/02/22 10:58:05;;;;;;;13.10;4.85;;;;;;;12.58;58.36;100079.73;1409118;88;21392;-78
2024/02/22 11:00:34;;;;;;;11.93;4.47;;;;;;;12.71;59.16;100073.89;1406214;88;21235;-79
2024/02/22 11:03:03;;;;;;;11.40;4.27;;;;;;;12.74;57.30;100067.73;1452437;88;21491;-79
2024/02/22 11:05:38;;;;;;;8.50;5.20;;;;;;;12.83;58.02;100056.59;1479614;87;21440;-78
2024/02/22 11:08:06;;;;;;;12.13;4.00;;;;;;;12.88;57.34;100045.78;1404832;88;21390;-78
2024/02/22 11:10:33;;;;;;;11.97;4.43;;;;;;;12.94;56.01;100046.92;1406876;87;21257;-77
2024/02/22 11:13:03;;;;;;;9.03;3.30;;;;;;;12.92;56.62;100039.64;1407340;87;21247;-79